Terminal Aerodrome Forecast
Issued by NWS

Current Version | Previous Version | Text Only | Print | Product List | Glossary On
Versions: 1 2 3 4 5 6 7 8 9 10 11 12 13 14
042
FTUS46 KMTR 260521
TAFSNS
TAF
KSNS 260521Z 2606/2706 28007KT P6SM SCT030 SCT050
     FM260900 VRB03KT P6SM SCT030 BKN250
     FM261600 12006KT P6SM BKN040 OVC150
     FM270300 28008KT 6SM -RA BR SCT008 BKN012 OVC030=

USA.gov is the U.S. government's official web portal to all federal, state and local government web resources and services.